Terminal Aerodrome Forecast
Issued by NWS King Salmon, AK

Home | Current Version | Previous Version | Text Only | Print | Product List | Glossary On
Versions: 1 2 3 4 5 6 7 8 9 10 11 12 13 14 15
000
FTAK31 PANC 010058 AAA
TAFAKN
TAF AMD
PAKN 010058Z 0101/0124 01013G20KT P6SM SCT040 BKN070
     FM010600 03006KT P6SM SCT050 BKN080
     FM012000 VRB05KT P6SM VCSH SCT040 BKN070=

USA.gov is the U.S. government's official web portal to all federal, state and local government web resources and services.